sensor_id;sensor_type;location;lat;lon;timestamp;P1;durP1;ratioP1;P2;durP2;ratioP2
31282;SDS011;17915;52.540;13.604;2023-02-28T00:01:02;5.60;;;2.63;;
31282;SDS011;17915;52.540;13.604;2023-02-28T00:03:27;4.27;;;2.53;;
31282;SDS011;17915;52.540;13.604;2023-02-28T00:05:53;7.77;;;3.47;;
31282;SDS011;17915;52.540;13.604;2023-02-28T00:08:18;5.57;;;3.77;;
31282;SDS011;17915;52.540;13.604;2023-02-28T00:10:44;7.67;;;2.60;;
31282;SDS011;17915;52.540;13.604;2023-02-28T00:13:09;2.80;;;2.60;;
31282;SDS011;17915;52.540;13.604;2023-02-28T00:15:35;3.75;;;3.08;;
31282;SDS011;17915;52.540;13.604;2023-02-28T00:18:01;10.73;;;4.73;;
31282;SDS011;17915;52.540;13.604;2023-02-28T00:20:28;7.22;;;3.90;;
31282;SDS011;17915;52.540;13.604;2023-02-28T00:22:54;4.07;;;3.38;;
31282;SDS011;17915;52.540;13.604;2023-02-28T00:25:21;5.25;;;2.90;;
31282;SDS011;17915;52.540;13.604;2023-02-28T00:27:48;4.10;;;3.10;;
31282;SDS011;17915;52.540;13.604;2023-02-28T00:30:15;12.02;;;2.92;;
31282;SDS011;17915;52.540;13.604;2023-02-28T00:32:42;6.90;;;2.90;;
31282;SDS011;17915;52.540;13.604;2023-02-28T00:35:08;4.80;;;3.30;;
31282;SDS011;17915;52.540;13.604;2023-02-28T00:37:35;5.65;;;2.80;;
31282;SDS011;17915;52.540;13.604;2023-02-28T00:40:00;3.30;;;2.30;;
31282;SDS011;17915;52.540;13.604;2023-02-28T00:42:26;3.35;;;2.85;;
31282;SDS011;17915;52.540;13.604;2023-02-28T00:44:51;5.77;;;4.30;;
31282;SDS011;17915;52.540;13.604;2023-02-28T00:47:16;11.07;;;3.73;;
31282;SDS011;17915;52.540;13.604;2023-02-28T00:49:42;4.40;;;3.33;;
31282;SDS011;17915;52.540;13.604;2023-02-28T00:52:08;8.93;;;4.15;;
31282;SDS011;17915;52.540;13.604;2023-02-28T00:54:33;6.03;;;3.30;;
31282;SDS011;17915;52.540;13.604;2023-02-28T00:56:59;12.73;;;3.10;;
31282;SDS011;17915;52.540;13.604;2023-02-28T00:59:24;3.13;;;2.93;;
31282;SDS011;17915;52.540;13.604;2023-02-28T01:01:50;7.53;;;3.30;;
31282;SDS011;17915;52.540;13.604;2023-02-28T01:04:15;12.13;;;3.50;;
31282;SDS011;17915;52.540;13.604;2023-02-28T01:06:40;6.57;;;3.73;;
31282;SDS011;17915;52.540;13.604;2023-02-28T01:09:07;5.95;;;4.18;;
31282;SDS011;17915;52.540;13.604;2023-02-28T01:11:33;5.28;;;4.13;;
31282;SDS011;17915;52.540;13.604;2023-02-28T01:13:59;8.80;;;4.28;;
31282;SDS011;17915;52.540;13.604;2023-02-28T01:16:24;6.35;;;3.88;;
31282;SDS011;17915;52.540;13.604;2023-02-28T01:18:50;7.73;;;3.67;;
31282;SDS011;17915;52.540;13.604;2023-02-28T01:21:16;9.50;;;4.43;;
31282;SDS011;17915;52.540;13.604;2023-02-28T01:23:43;4.70;;;4.00;;
31282;SDS011;17915;52.540;13.604;2023-02-28T01:26:10;8.57;;;4.10;;
31282;SDS011;17915;52.540;13.604;2023-02-28T01:28:37;7.32;;;4.25;;
31282;SDS011;17915;52.540;13.604;2023-02-28T01:31:03;6.93;;;3.40;;
31282;SDS011;17915;52.540;13.604;2023-02-28T01:33:28;8.70;;;4.40;;
31282;SDS011;17915;52.540;13.604;2023-02-28T01:36:01;6.97;;;3.70;;
31282;SDS011;17915;52.540;13.604;2023-02-28T01:38:28;7.40;;;4.35;;
31282;SDS011;17915;52.540;13.604;2023-02-28T01:40:53;6.67;;;2.97;;
31282;SDS011;17915;52.540;13.604;2023-02-28T01:43:20;9.63;;;4.17;;
31282;SDS011;17915;52.540;13.604;2023-02-28T01:45:45;6.90;;;3.80;;
31282;SDS011;17915;52.540;13.604;2023-02-28T01:48:11;5.87;;;3.27;;
31282;SDS011;17915;52.540;13.604;2023-02-28T01:50:38;10.75;;;4.03;;
31282;SDS011;17915;52.540;13.604;2023-02-28T01:53:06;7.40;;;4.95;;
31282;SDS011;17915;52.540;13.604;2023-02-28T01:55:34;8.40;;;4.28;;
31282;SDS011;17915;52.540;13.604;2023-02-28T01:58:00;6.50;;;3.20;;
31282;SDS011;17915;52.540;13.604;2023-02-28T02:00:27;6.18;;;3.78;;
31282;SDS011;17915;52.540;13.604;2023-02-28T02:02:55;4.93;;;3.20;;
31282;SDS011;17915;52.540;13.604;2023-02-28T02:05:24;7.95;;;4.03;;
31282;SDS011;17915;52.540;13.604;2023-02-28T02:07:52;8.15;;;3.97;;
31282;SDS011;17915;52.540;13.604;2023-02-28T02:10:21;8.13;;;3.97;;
31282;SDS011;17915;52.540;13.604;2023-02-28T02:30:32;8.32;;;4.63;;
31282;SDS011;17915;52.540;13.604;2023-02-28T02:35:19;9.75;;;3.85;;
31282;SDS011;17915;52.540;13.604;2023-02-28T02:40:21;11.18;;;4.63;;
31282;SDS011;17915;52.540;13.604;2023-02-28T02:42:56;7.90;;;4.10;;
31282;SDS011;17915;52.540;13.604;2023-02-28T02:47:53;6.28;;;4.65;;
31282;SDS011;17915;52.540;13.604;2023-02-28T02:50:33;4.72;;;3.97;;
31282;SDS011;17915;52.540;13.604;2023-02-28T02:53:02;4.43;;;4.03;;
31282;SDS011;17915;52.540;13.604;2023-02-28T02:55:29;10.52;;;4.90;;
31282;SDS011;17915;52.540;13.604;2023-02-28T02:58:01;6.97;;;4.65;;
31282;SDS011;17915;52.540;13.604;2023-02-28T03:00:30;7.97;;;4.45;;
31282;SDS011;17915;52.540;13.604;2023-02-28T03:02:58;11.63;;;5.13;;
31282;SDS011;17915;52.540;13.604;2023-02-28T03:05:32;11.35;;;5.40;;
31282;SDS011;17915;52.540;13.604;2023-02-28T03:08:19;8.15;;;5.35;;
31282;SDS011;17915;52.540;13.604;2023-02-28T03:10:45;7.40;;;5.43;;
31282;SDS011;17915;52.540;13.604;2023-02-28T03:24:03;7.95;;;4.82;;
31282;SDS011;17915;52.540;13.604;2023-02-28T03:26:33;5.57;;;4.13;;
31282;SDS011;17915;52.540;13.604;2023-02-28T03:32:07;9.48;;;5.15;;
31282;SDS011;17915;52.540;13.604;2023-02-28T03:34:57;9.55;;;5.53;;
31282;SDS011;17915;52.540;13.604;2023-02-28T03:37:24;13.27;;;3.88;;
31282;SDS011;17915;52.540;13.604;2023-02-28T03:42:21;6.78;;;4.00;;
31282;SDS011;17915;52.540;13.604;2023-02-28T03:44:50;13.35;;;4.60;;
31282;SDS011;17915;52.540;13.604;2023-02-28T03:47:21;9.35;;;4.68;;
31282;SDS011;17915;52.540;13.604;2023-02-28T03:50:27;9.98;;;4.60;;
31282;SDS011;17915;52.540;13.604;2023-02-28T03:53:07;10.13;;;5.45;;
31282;SDS011;17915;52.540;13.604;2023-02-28T03:55:56;7.47;;;4.55;;
31282;SDS011;17915;52.540;13.604;2023-02-28T03:58:27;14.55;;;4.88;;
31282;SDS011;17915;52.540;13.604;2023-02-28T04:01:12;8.02;;;3.45;;
31282;SDS011;17915;52.540;13.604;2023-02-28T04:03:42;10.23;;;5.20;;
31282;SDS011;17915;52.540;13.604;2023-02-28T04:06:08;6.83;;;4.27;;
31282;SDS011;17915;52.540;13.604;2023-02-28T04:08:40;9.57;;;5.40;;
31282;SDS011;17915;52.540;13.604;2023-02-28T04:11:12;8.60;;;4.27;;
31282;SDS011;17915;52.540;13.604;2023-02-28T04:13:43;9.77;;;5.20;;
31282;SDS011;17915;52.540;13.604;2023-02-28T04:16:09;22.57;;;6.17;;
31282;SDS011;17915;52.540;13.604;2023-02-28T04:18:41;12.10;;;4.72;;
31282;SDS011;17915;52.540;13.604;2023-02-28T04:21:08;5.55;;;4.65;;
31282;SDS011;17915;52.540;13.604;2023-02-28T04:23:34;17.42;;;6.65;;
31282;SDS011;17915;52.540;13.604;2023-02-28T04:25:59;8.50;;;5.27;;
31282;SDS011;17915;52.540;13.604;2023-02-28T04:28:24;11.63;;;5.87;;
31282;SDS011;17915;52.540;13.604;2023-02-28T04:30:54;10.40;;;5.97;;
31282;SDS011;17915;52.540;13.604;2023-02-28T04:33:24;15.57;;;6.10;;
31282;SDS011;17915;52.540;13.604;2023-02-28T04:35:58;10.33;;;4.37;;
31282;SDS011;17915;52.540;13.604;2023-02-28T04:38:24;27.73;;;8.45;;
31282;SDS011;17915;52.540;13.604;2023-02-28T04:40:49;11.47;;;5.23;;
31282;SDS011;17915;52.540;13.604;2023-02-28T04:43:15;13.87;;;6.03;;
31282;SDS011;17915;52.540;13.604;2023-02-28T04:45:40;7.93;;;4.40;;
31282;SDS011;17915;52.540;13.604;2023-02-28T04:48:05;12.70;;;4.83;;
31282;SDS011;17915;52.540;13.604;2023-02-28T04:50:31;6.60;;;4.93;;
31282;SDS011;17915;52.540;13.604;2023-02-28T04:52:56;10.93;;;6.30;;
31282;SDS011;17915;52.540;13.604;2023-02-28T04:55:22;10.90;;;6.00;;
31282;SDS011;17915;52.540;13.604;2023-02-28T04:57:47;12.30;;;6.43;;
31282;SDS011;17915;52.540;13.604;2023-02-28T05:00:13;11.00;;;5.25;;
31282;SDS011;17915;52.540;13.604;2023-02-28T05:02:41;12.43;;;5.13;;
31282;SDS011;17915;52.540;13.604;2023-02-28T05:05:07;14.87;;;5.33;;
31282;SDS011;17915;52.540;13.604;2023-02-28T05:07:32;14.47;;;5.60;;
31282;SDS011;17915;52.540;13.604;2023-02-28T05:09:57;10.63;;;6.43;;
31282;SDS011;17915;52.540;13.604;2023-02-28T05:12:23;13.20;;;6.73;;
31282;SDS011;17915;52.540;13.604;2023-02-28T05:14:48;8.00;;;4.80;;
31282;SDS011;17915;52.540;13.604;2023-02-28T05:17:14;13.87;;;7.13;;
31282;SDS011;17915;52.540;13.604;2023-02-28T05:19:39;16.27;;;5.87;;
31282;SDS011;17915;52.540;13.604;2023-02-28T05:22:04;16.37;;;7.27;;
31282;SDS011;17915;52.540;13.604;2023-02-28T05:24:30;9.30;;;5.57;;
31282;SDS011;17915;52.540;13.604;2023-02-28T05:26:55;10.37;;;5.67;;
31282;SDS011;17915;52.540;13.604;2023-02-28T05:29:21;12.37;;;5.43;;
31282;SDS011;17915;52.540;13.604;2023-02-28T05:31:46;10.13;;;6.00;;
31282;SDS011;17915;52.540;13.604;2023-02-28T05:34:12;10.77;;;6.27;;
31282;SDS011;17915;52.540;13.604;2023-02-28T05:36:37;9.63;;;5.50;;
31282;SDS011;17915;52.540;13.604;2023-02-28T05:39:04;11.63;;;5.63;;
31282;SDS011;17915;52.540;13.604;2023-02-28T05:41:30;13.38;;;6.60;;
31282;SDS011;17915;52.540;13.604;2023-02-28T05:43:56;14.53;;;6.87;;
31282;SDS011;17915;52.540;13.604;2023-02-28T05:46:22;11.80;;;7.25;;
31282;SDS011;17915;52.540;13.604;2023-02-28T05:48:48;19.47;;;7.80;;
31282;SDS011;17915;52.540;13.604;2023-02-28T05:51:13;10.93;;;6.43;;
31282;SDS011;17915;52.540;13.604;2023-02-28T05:53:38;16.53;;;7.43;;
31282;SDS011;17915;52.540;13.604;2023-02-28T05:56:04;15.27;;;6.97;;
31282;SDS011;17915;52.540;13.604;2023-02-28T05:58:30;18.00;;;6.70;;
31282;SDS011;17915;52.540;13.604;2023-02-28T06:00:58;13.32;;;6.32;;
31282;SDS011;17915;52.540;13.604;2023-02-28T06:03:25;14.98;;;6.03;;
31282;SDS011;17915;52.540;13.604;2023-02-28T06:05:51;14.05;;;6.03;;
31282;SDS011;17915;52.540;13.604;2023-02-28T06:08:16;14.03;;;6.97;;
31282;SDS011;17915;52.540;13.604;2023-02-28T06:10:41;17.93;;;6.47;;
31282;SDS011;17915;52.540;13.604;2023-02-28T06:13:07;14.00;;;6.87;;
31282;SDS011;17915;52.540;13.604;2023-02-28T06:15:32;15.07;;;6.87;;
31282;SDS011;17915;52.540;13.604;2023-02-28T06:17:58;15.13;;;6.00;;
31282;SDS011;17915;52.540;13.604;2023-02-28T06:20:24;17.43;;;7.30;;
31282;SDS011;17915;52.540;13.604;2023-02-28T06:22:53;11.48;;;6.30;;
31282;SDS011;17915;52.540;13.604;2023-02-28T06:25:20;14.65;;;7.28;;
31282;SDS011;17915;52.540;13.604;2023-02-28T06:27:46;20.00;;;6.60;;
31282;SDS011;17915;52.540;13.604;2023-02-28T06:30:13;13.68;;;6.85;;
31282;SDS011;17915;52.540;13.604;2023-02-28T06:32:38;11.67;;;6.30;;
31282;SDS011;17915;52.540;13.604;2023-02-28T06:35:04;13.07;;;7.20;;
31282;SDS011;17915;52.540;13.604;2023-02-28T06:37:32;12.33;;;7.33;;
31282;SDS011;17915;52.540;13.604;2023-02-28T06:39:58;22.27;;;7.63;;
31282;SDS011;17915;52.540;13.604;2023-02-28T06:42:24;10.47;;;6.50;;
31282;SDS011;17915;52.540;13.604;2023-02-28T06:44:54;14.18;;;7.57;;
31282;SDS011;17915;52.540;13.604;2023-02-28T06:49:45;12.40;;;6.35;;
31282;SDS011;17915;52.540;13.604;2023-02-28T06:52:10;19.77;;;6.27;;
31282;SDS011;17915;52.540;13.604;2023-02-28T06:54:36;10.97;;;6.30;;
31282;SDS011;17915;52.540;13.604;2023-02-28T06:57:02;17.25;;;7.50;;
31282;SDS011;17915;52.540;13.604;2023-02-28T06:59:27;15.43;;;7.37;;
31282;SDS011;17915;52.540;13.604;2023-02-28T07:01:53;12.27;;;6.90;;
31282;SDS011;17915;52.540;13.604;2023-02-28T07:04:19;13.93;;;8.10;;
31282;SDS011;17915;52.540;13.604;2023-02-28T07:06:45;7.73;;;6.17;;
31282;SDS011;17915;52.540;13.604;2023-02-28T07:09:10;17.80;;;7.47;;
31282;SDS011;17915;52.540;13.604;2023-02-28T07:11:36;8.33;;;5.27;;
31282;SDS011;17915;52.540;13.604;2023-02-28T07:14:01;10.27;;;7.97;;
31282;SDS011;17915;52.540;13.604;2023-02-28T07:16:26;15.53;;;6.83;;
31282;SDS011;17915;52.540;13.604;2023-02-28T07:18:52;12.63;;;7.13;;
31282;SDS011;17915;52.540;13.604;2023-02-28T07:23:44;17.52;;;7.22;;
31282;SDS011;17915;52.540;13.604;2023-02-28T07:26:13;14.13;;;6.33;;
31282;SDS011;17915;52.540;13.604;2023-02-28T07:28:43;14.70;;;7.55;;
31282;SDS011;17915;52.540;13.604;2023-02-28T07:31:10;11.57;;;5.97;;
31282;SDS011;17915;52.540;13.604;2023-02-28T07:33:36;26.50;;;6.80;;
31282;SDS011;17915;52.540;13.604;2023-02-28T07:36:06;17.65;;;5.95;;
31282;SDS011;17915;52.540;13.604;2023-02-28T07:38:36;9.02;;;5.57;;
31282;SDS011;17915;52.540;13.604;2023-02-28T07:41:02;9.35;;;5.32;;
31282;SDS011;17915;52.540;13.604;2023-02-28T07:43:31;17.58;;;6.07;;
31282;SDS011;17915;52.540;13.604;2023-02-28T07:46:00;12.93;;;6.50;;
31282;SDS011;17915;52.540;13.604;2023-02-28T07:48:27;13.63;;;6.30;;
31282;SDS011;17915;52.540;13.604;2023-02-28T07:50:55;10.23;;;5.23;;
31282;SDS011;17915;52.540;13.604;2023-02-28T07:53:21;9.38;;;6.05;;
31282;SDS011;17915;52.540;13.604;2023-02-28T07:55:47;7.22;;;4.88;;
31282;SDS011;17915;52.540;13.604;2023-02-28T07:58:12;11.87;;;5.50;;
31282;SDS011;17915;52.540;13.604;2023-02-28T08:00:38;9.83;;;5.90;;
31282;SDS011;17915;52.540;13.604;2023-02-28T08:03:03;21.17;;;7.23;;
31282;SDS011;17915;52.540;13.604;2023-02-28T08:05:28;9.90;;;6.37;;
31282;SDS011;17915;52.540;13.604;2023-02-28T08:07:55;13.77;;;6.95;;
31282;SDS011;17915;52.540;13.604;2023-02-28T08:10:20;17.17;;;8.07;;
31282;SDS011;17915;52.540;13.604;2023-02-28T08:12:45;10.27;;;5.50;;
31282;SDS011;17915;52.540;13.604;2023-02-28T08:15:11;14.93;;;5.97;;
31282;SDS011;17915;52.540;13.604;2023-02-28T08:17:36;15.03;;;7.03;;
31282;SDS011;17915;52.540;13.604;2023-02-28T08:20:02;8.87;;;5.73;;
31282;SDS011;17915;52.540;13.604;2023-02-28T08:22:28;12.35;;;6.53;;
31282;SDS011;17915;52.540;13.604;2023-02-28T08:24:54;18.97;;;6.00;;
31282;SDS011;17915;52.540;13.604;2023-02-28T08:27:19;15.40;;;6.30;;
31282;SDS011;17915;52.540;13.604;2023-02-28T08:29:44;10.70;;;6.30;;
31282;SDS011;17915;52.540;13.604;2023-02-28T08:32:10;15.27;;;5.23;;
31282;SDS011;17915;52.540;13.604;2023-02-28T08:34:36;8.73;;;5.33;;
31282;SDS011;17915;52.540;13.604;2023-02-28T08:37:04;15.10;;;5.40;;
31282;SDS011;17915;52.540;13.604;2023-02-28T08:39:30;9.90;;;3.73;;
31282;SDS011;17915;52.540;13.604;2023-02-28T08:41:55;6.10;;;3.63;;
31282;SDS011;17915;52.540;13.604;2023-02-28T08:44:20;12.20;;;4.07;;
31282;SDS011;17915;52.540;13.604;2023-02-28T08:46:46;10.17;;;4.57;;
31282;SDS011;17915;52.540;13.604;2023-02-28T08:49:11;18.17;;;5.63;;
31282;SDS011;17915;52.540;13.604;2023-02-28T08:51:36;10.20;;;4.70;;
31282;SDS011;17915;52.540;13.604;2023-02-28T08:54:03;9.55;;;4.43;;
31282;SDS011;17915;52.540;13.604;2023-02-28T08:56:28;5.67;;;3.53;;
31282;SDS011;17915;52.540;13.604;2023-02-28T08:58:55;6.67;;;4.47;;
31282;SDS011;17915;52.540;13.604;2023-02-28T09:03:48;4.25;;;3.17;;
31282;SDS011;17915;52.540;13.604;2023-02-28T09:06:14;10.45;;;5.00;;
31282;SDS011;17915;52.540;13.604;2023-02-28T09:08:40;3.95;;;3.13;;
31282;SDS011;17915;52.540;13.604;2023-02-28T09:11:06;7.23;;;3.33;;
31282;SDS011;17915;52.540;13.604;2023-02-28T09:13:32;4.07;;;3.20;;
31282;SDS011;17915;52.540;13.604;2023-02-28T09:15:58;5.10;;;3.27;;
31282;SDS011;17915;52.540;13.604;2023-02-28T09:18:27;13.02;;;3.92;;
31282;SDS011;17915;52.540;13.604;2023-02-28T09:20:53;9.48;;;3.08;;
31282;SDS011;17915;52.540;13.604;2023-02-28T09:23:18;3.23;;;2.93;;
31282;SDS011;17915;52.540;13.604;2023-02-28T09:25:48;2.73;;;2.27;;
31282;SDS011;17915;52.540;13.604;2023-02-28T09:28:18;6.35;;;3.03;;
31282;SDS011;17915;52.540;13.604;2023-02-28T09:33:11;3.60;;;2.50;;
31282;SDS011;17915;52.540;13.604;2023-02-28T09:35:37;2.90;;;2.70;;
31282;SDS011;17915;52.540;13.604;2023-02-28T09:38:02;6.93;;;1.97;;
31282;SDS011;17915;52.540;13.604;2023-02-28T09:40:29;7.30;;;2.65;;
31282;SDS011;17915;52.540;13.604;2023-02-28T09:42:55;12.55;;;4.85;;
31282;SDS011;17915;52.540;13.604;2023-02-28T09:45:24;6.50;;;1.92;;
31282;SDS011;17915;52.540;13.604;2023-02-28T09:47:54;3.22;;;2.35;;
31282;SDS011;17915;52.540;13.604;2023-02-28T09:50:26;2.47;;;1.70;;
31282;SDS011;17915;52.540;13.604;2023-02-28T09:52:58;3.55;;;3.05;;
31282;SDS011;17915;52.540;13.604;2023-02-28T09:57:59;2.60;;;2.03;;
31282;SDS011;17915;52.540;13.604;2023-02-28T10:08:35;3.58;;;2.00;;
31282;SDS011;17915;52.540;13.604;2023-02-28T10:11:07;4.20;;;1.88;;
31282;SDS011;17915;52.540;13.604;2023-02-28T10:13:34;2.50;;;2.13;;
31282;SDS011;17915;52.540;13.604;2023-02-28T10:16:07;5.40;;;2.83;;
31282;SDS011;17915;52.540;13.604;2023-02-28T10:19:20;2.33;;;2.13;;
31282;SDS011;17915;52.540;13.604;2023-02-28T10:21:52;5.45;;;3.80;;
31282;SDS011;17915;52.540;13.604;2023-02-28T10:24:35;6.55;;;4.35;;
31282;SDS011;17915;52.540;13.604;2023-02-28T10:27:21;3.78;;;2.63;;
31282;SDS011;17915;52.540;13.604;2023-02-28T10:29:49;4.20;;;2.83;;
31282;SDS011;17915;52.540;13.604;2023-02-28T10:32:17;6.28;;;3.13;;
31282;SDS011;17915;52.540;13.604;2023-02-28T10:34:44;15.93;;;2.92;;
31282;SDS011;17915;52.540;13.604;2023-02-28T10:37:13;4.57;;;2.67;;
31282;SDS011;17915;52.540;13.604;2023-02-28T10:39:39;5.22;;;2.85;;
31282;SDS011;17915;52.540;13.604;2023-02-28T10:42:21;3.30;;;3.00;;
31282;SDS011;17915;52.540;13.604;2023-02-28T10:45:01;7.18;;;2.97;;
31282;SDS011;17915;52.540;13.604;2023-02-28T10:47:30;4.47;;;3.17;;
31282;SDS011;17915;52.540;13.604;2023-02-28T10:52:36;18.92;;;4.90;;
31282;SDS011;17915;52.540;13.604;2023-02-28T10:55:18;5.10;;;2.70;;
31282;SDS011;17915;52.540;13.604;2023-02-28T10:57:46;8.82;;;3.83;;
31282;SDS011;17915;52.540;13.604;2023-02-28T11:00:17;5.05;;;2.60;;
31282;SDS011;17915;52.540;13.604;2023-02-28T11:02:43;3.95;;;2.72;;
31282;SDS011;17915;52.540;13.604;2023-02-28T11:08:06;3.72;;;2.67;;
31282;SDS011;17915;52.540;13.604;2023-02-28T11:10:37;2.80;;;2.05;;
31282;SDS011;17915;52.540;13.604;2023-02-28T11:13:03;6.03;;;2.20;;
31282;SDS011;17915;52.540;13.604;2023-02-28T11:15:29;5.07;;;2.33;;
31282;SDS011;17915;52.540;13.604;2023-02-28T11:20:36;41.15;;;16.13;;
31282;SDS011;17915;52.540;13.604;2023-02-28T11:25:30;4.10;;;2.70;;
31282;SDS011;17915;52.540;13.604;2023-02-28T11:28:04;3.10;;;2.80;;
31282;SDS011;17915;52.540;13.604;2023-02-28T11:33:18;3.13;;;2.33;;
31282;SDS011;17915;52.540;13.604;2023-02-28T11:35:53;3.88;;;2.65;;
31282;SDS011;17915;52.540;13.604;2023-02-28T11:38:20;3.70;;;2.35;;
31282;SDS011;17915;52.540;13.604;2023-02-28T11:40:48;4.07;;;2.30;;
31282;SDS011;17915;52.540;13.604;2023-02-28T11:48:58;4.28;;;2.60;;
31282;SDS011;17915;52.540;13.604;2023-02-28T11:51:47;4.30;;;2.88;;
31282;SDS011;17915;52.540;13.604;2023-02-28T11:54:32;3.45;;;2.13;;
31282;SDS011;17915;52.540;13.604;2023-02-28T12:08:34;5.93;;;2.55;;
31282;SDS011;17915;52.540;13.604;2023-02-28T12:22:33;3.10;;;2.13;;
31282;SDS011;17915;52.540;13.604;2023-02-28T12:27:26;2.90;;;2.17;;
31282;SDS011;17915;52.540;13.604;2023-02-28T12:30:01;2.63;;;2.42;;
31282;SDS011;17915;52.540;13.604;2023-02-28T12:32:30;3.30;;;2.25;;
31282;SDS011;17915;52.540;13.604;2023-02-28T12:35:01;4.13;;;2.13;;
31282;SDS011;17915;52.540;13.604;2023-02-28T12:37:47;10.13;;;3.58;;
31282;SDS011;17915;52.540;13.604;2023-02-28T12:40:17;3.47;;;2.28;;
31282;SDS011;17915;52.540;13.604;2023-02-28T12:42:46;5.55;;;2.42;;
31282;SDS011;17915;52.540;13.604;2023-02-28T12:45:18;3.47;;;2.83;;
31282;SDS011;17915;52.540;13.604;2023-02-28T12:47:48;2.22;;;2.10;;
31282;SDS011;17915;52.540;13.604;2023-02-28T12:50:41;2.75;;;2.53;;
31282;SDS011;17915;52.540;13.604;2023-02-28T12:58:36;4.50;;;2.30;;
31282;SDS011;17915;52.540;13.604;2023-02-28T13:01:15;4.15;;;2.17;;
31282;SDS011;17915;52.540;13.604;2023-02-28T13:09:11;3.00;;;2.60;;
31282;SDS011;17915;52.540;13.604;2023-02-28T13:11:44;3.58;;;3.05;;
31282;SDS011;17915;52.540;13.604;2023-02-28T13:14:34;3.17;;;2.88;;
31282;SDS011;17915;52.540;13.604;2023-02-28T13:19:40;3.67;;;2.97;;
31282;SDS011;17915;52.540;13.604;2023-02-28T13:25:02;4.30;;;3.05;;
31282;SDS011;17915;52.540;13.604;2023-02-28T13:27:49;2.97;;;2.70;;
31282;SDS011;17915;52.540;13.604;2023-02-28T13:33:28;5.60;;;3.13;;
31282;SDS011;17915;52.540;13.604;2023-02-28T13:38:47;5.22;;;3.60;;
31282;SDS011;17915;52.540;13.604;2023-02-28T14:03:06;5.65;;;3.60;;
31282;SDS011;17915;52.540;13.604;2023-02-28T14:05:36;4.72;;;3.38;;
31282;SDS011;17915;52.540;13.604;2023-02-28T14:08:04;4.40;;;3.75;;
31282;SDS011;17915;52.540;13.604;2023-02-28T14:10:34;6.10;;;3.95;;
31282;SDS011;17915;52.540;13.604;2023-02-28T14:15:57;4.22;;;3.35;;
31282;SDS011;17915;52.540;13.604;2023-02-28T14:21:21;4.63;;;3.45;;
31282;SDS011;17915;52.540;13.604;2023-02-28T14:35:17;4.20;;;3.53;;
31282;SDS011;17915;52.540;13.604;2023-02-28T14:37:49;4.75;;;3.95;;
31282;SDS011;17915;52.540;13.604;2023-02-28T14:40:15;3.33;;;2.83;;
31282;SDS011;17915;52.540;13.604;2023-02-28T14:42:46;4.68;;;2.42;;
31282;SDS011;17915;52.540;13.604;2023-02-28T14:45:17;3.70;;;2.63;;
31282;SDS011;17915;52.540;13.604;2023-02-28T14:47:46;2.97;;;2.75;;
31282;SDS011;17915;52.540;13.604;2023-02-28T14:50:20;5.03;;;2.70;;
31282;SDS011;17915;52.540;13.604;2023-02-28T14:52:47;3.97;;;2.67;;
31282;SDS011;17915;52.540;13.604;2023-02-28T14:55:17;4.43;;;3.20;;
31282;SDS011;17915;52.540;13.604;2023-02-28T14:57:51;5.18;;;2.90;;
31282;SDS011;17915;52.540;13.604;2023-02-28T15:00:23;4.70;;;2.97;;
31282;SDS011;17915;52.540;13.604;2023-02-28T15:02:53;7.75;;;3.65;;
31282;SDS011;17915;52.540;13.604;2023-02-28T15:07:48;23.95;;;5.68;;
31282;SDS011;17915;52.540;13.604;2023-02-28T15:10:18;16.48;;;4.90;;
31282;SDS011;17915;52.540;13.604;2023-02-28T15:12:58;13.07;;;4.97;;
31282;SDS011;17915;52.540;13.604;2023-02-28T15:15:35;10.85;;;4.22;;
31282;SDS011;17915;52.540;13.604;2023-02-28T15:18:07;7.75;;;3.88;;
31282;SDS011;17915;52.540;13.604;2023-02-28T15:20:40;6.93;;;3.78;;
31282;SDS011;17915;52.540;13.604;2023-02-28T15:23:07;7.68;;;3.03;;
31282;SDS011;17915;52.540;13.604;2023-02-28T15:25:33;3.35;;;3.03;;
31282;SDS011;17915;52.540;13.604;2023-02-28T15:27:59;5.03;;;2.97;;
31282;SDS011;17915;52.540;13.604;2023-02-28T15:30:25;5.07;;;3.43;;
31282;SDS011;17915;52.540;13.604;2023-02-28T15:36:06;3.13;;;2.88;;
31282;SDS011;17915;52.540;13.604;2023-02-28T15:38:42;5.18;;;3.33;;
31282;SDS011;17915;52.540;13.604;2023-02-28T15:41:25;6.25;;;4.22;;
31282;SDS011;17915;52.540;13.604;2023-02-28T15:47:03;8.05;;;3.30;;
31282;SDS011;17915;52.540;13.604;2023-02-28T15:49:39;4.75;;;3.90;;
31282;SDS011;17915;52.540;13.604;2023-02-28T15:52:05;4.32;;;3.22;;
31282;SDS011;17915;52.540;13.604;2023-02-28T15:54:34;5.87;;;3.70;;
31282;SDS011;17915;52.540;13.604;2023-02-28T15:57:04;6.05;;;3.03;;
31282;SDS011;17915;52.540;13.604;2023-02-28T15:59:33;8.23;;;3.85;;
31282;SDS011;17915;52.540;13.604;2023-02-28T16:04:35;7.63;;;3.70;;
31282;SDS011;17915;52.540;13.604;2023-02-28T16:07:05;6.40;;;5.00;;
31282;SDS011;17915;52.540;13.604;2023-02-28T16:09:31;9.07;;;4.20;;
31282;SDS011;17915;52.540;13.604;2023-02-28T16:12:00;5.63;;;3.78;;
31282;SDS011;17915;52.540;13.604;2023-02-28T16:14:28;9.13;;;3.50;;
31282;SDS011;17915;52.540;13.604;2023-02-28T16:17:05;5.10;;;3.30;;
31282;SDS011;17915;52.540;13.604;2023-02-28T16:19:35;7.47;;;3.72;;
31282;SDS011;17915;52.540;13.604;2023-02-28T16:22:01;15.27;;;5.00;;
31282;SDS011;17915;52.540;13.604;2023-02-28T16:24:26;8.20;;;3.93;;
31282;SDS011;17915;52.540;13.604;2023-02-28T16:26:53;13.37;;;3.43;;
31282;SDS011;17915;52.540;13.604;2023-02-28T16:29:40;10.90;;;4.15;;
31282;SDS011;17915;52.540;13.604;2023-02-28T16:32:04;12.85;;;4.20;;
31282;SDS011;17915;52.540;13.604;2023-02-28T16:34:30;5.95;;;4.03;;
31282;SDS011;17915;52.540;13.604;2023-02-28T16:36:56;7.27;;;4.17;;
31282;SDS011;17915;52.540;13.604;2023-02-28T16:39:21;4.97;;;3.10;;
31282;SDS011;17915;52.540;13.604;2023-02-28T16:41:48;6.43;;;3.60;;
31282;SDS011;17915;52.540;13.604;2023-02-28T16:44:28;10.15;;;4.20;;
31282;SDS011;17915;52.540;13.604;2023-02-28T16:46:55;5.13;;;4.25;;
31282;SDS011;17915;52.540;13.604;2023-02-28T16:49:20;7.10;;;4.93;;
31282;SDS011;17915;52.540;13.604;2023-02-28T16:51:46;9.10;;;4.53;;
31282;SDS011;17915;52.540;13.604;2023-02-28T16:54:11;11.77;;;4.65;;
31282;SDS011;17915;52.540;13.604;2023-02-28T16:56:37;9.37;;;4.20;;
31282;SDS011;17915;52.540;13.604;2023-02-28T16:59:08;10.35;;;6.30;;
31282;SDS011;17915;52.540;13.604;2023-02-28T17:01:33;11.00;;;6.40;;
31282;SDS011;17915;52.540;13.604;2023-02-28T17:03:59;8.03;;;5.23;;
31282;SDS011;17915;52.540;13.604;2023-02-28T17:06:26;15.20;;;6.33;;
31282;SDS011;17915;52.540;13.604;2023-02-28T17:08:55;21.98;;;6.05;;
31282;SDS011;17915;52.540;13.604;2023-02-28T17:11:21;13.93;;;4.95;;
31282;SDS011;17915;52.540;13.604;2023-02-28T17:13:47;17.95;;;7.85;;
31282;SDS011;17915;52.540;13.604;2023-02-28T17:16:34;27.00;;;10.37;;
31282;SDS011;17915;52.540;13.604;2023-02-28T17:19:03;8.27;;;5.93;;
31282;SDS011;17915;52.540;13.604;2023-02-28T17:21:30;11.82;;;6.43;;
31282;SDS011;17915;52.540;13.604;2023-02-28T17:23:56;12.00;;;7.28;;
31282;SDS011;17915;52.540;13.604;2023-02-28T17:26:22;10.30;;;6.07;;
31282;SDS011;17915;52.540;13.604;2023-02-28T17:28:49;11.50;;;6.40;;
31282;SDS011;17915;52.540;13.604;2023-02-28T17:31:16;16.60;;;6.95;;
31282;SDS011;17915;52.540;13.604;2023-02-28T17:33:42;13.32;;;7.22;;
31282;SDS011;17915;52.540;13.604;2023-02-28T17:36:14;17.70;;;7.60;;